Time;durP1;ratioP1;P1;durP2;ratioP2;P2;SDS_P1;SDS_P2;PMS_P1;PMS_P2;Temp;Humidity;BMP_temperature;BMP_pressure;BME280_temperature;BME280_humidity;BME280_pressure;Samples;Min_cycle;Max_cycle;Signal;HPM_P1;HPM_P2
2022/09/01 01:46:01;;;;;;;;;;;;;;;;;;;;;
2022/09/01 02:13:31;;;;;;;;;;;;;;;;;;;;;
2022/09/01 02:59:21;;;;;;;;;;;;;;;;;;;;;
2022/09/01 03:09:56;;;;;;;;;;;;;;;;;;;;;
2022/09/01 03:19:50;;;;;;;;;;;;;;;;;;;;;
2022/09/01 03:26:23;;;;;;;;;;;;;;;;;;;;;
2022/09/01 03:29:50;;;;;;;;;;;;;;;;;;;;;
2022/09/01 03:43:22;;;;;;;;;;;;;;;;;;;;;
2022/09/01 03:46:31;;;;;;;;;9.50;9.50;;;;;22.31;54.20;101123.38;4848481;29;68919;-82
2022/09/01 03:49:48;;;;;;;;;;;;;;;;;;;;;
2022/09/01 03:56:30;;;;;;;;;;;;;;;;;;;;;
2022/09/01 04:02:54;;;;;;;;;;;;;;;;;;;;;
2022/09/01 04:06:19;;;;;;;;;;;;;;;;;;;;;
2022/09/01 04:26:13;;;;;;;;;14.00;12.00;;;;;21.76;54.93;101081.28;4807200;29;45480;-82
2022/09/01 04:29:43;;;;;;;;;16.00;15.50;;;;;22.10;54.34;101144.88;4787233;29;45558;-82
2022/09/01 04:39:41;;;;;;;;;;;;;;;;;;;;;
2022/09/01 04:43:01;;;;;;;;;;;;;;;;;;;;;
2022/09/01 04:56:07;;;;;;;;;;;;;;;;;;;;;
2022/09/01 05:05:59;;;;;;;;;9.75;8.75;;;;;21.55;55.19;101097.28;4785086;29;45383;-82
2022/09/01 05:09:15;;;;;;;;;;;;;;;;;;;;;
2022/09/01 05:12:19;;;;;;;;;;;;;;;;;;;;;
2022/09/01 05:18:38;;;;;;;;;;;;;;;;;;;;;
2022/09/01 05:22:16;;;;;;;;;;;;;;;;;;;;;
2022/09/01 05:24:33;;;;;;;;;10.50;9.75;;;;;21.77;55.45;101161.81;4908603;28;47185;-83
2022/09/01 05:27:58;;;;;;;;;;;;;;;;;;;;;
2022/09/01 05:38:21;;;;;;;;;;;;;;;;;;;;;
2022/09/01 05:41:17;;;;;;;;;;;;;;;;;;;;;
2022/09/01 05:46:58;;;;;;;;;;;;;;;;;;;;;
2022/09/01 05:49:24;;;;;;;;;12.25;10.00;;;;;21.26;55.77;101127.41;4891529;28;74555;-75
2022/09/01 05:51:57;;;;;;;;;10.00;9.00;;;;;21.25;56.03;101120.22;4903410;29;45438;-75
2022/09/01 05:54:26;;;;;;;;;11.75;11.75;;;;;21.37;55.95;101140.22;4893947;29;45389;-75
2022/09/01 05:56:53;;;;;;;;;10.50;10.00;;;;;21.43;55.40;101156.94;4890312;29;45490;-75
2022/09/01 05:59:19;;;;;;;;;11.25;11.25;;;;;21.21;55.53;101121.44;4900793;29;46629;-76
2022/09/01 06:01:46;;;;;;;;;13.00;9.25;;;;;21.18;56.07;101108.94;4881681;29;45464;-76
2022/09/01 06:04:12;;;;;;;;;11.50;10.25;;;;;21.23;55.70;101105.88;4903182;29;45678;-77
2022/09/01 06:06:44;;;;;;;;;13.75;12.75;;;;;21.16;55.57;101097.31;4885955;29;46048;-76
2022/09/01 06:09:10;;;;;;;;;9.25;9.25;;;;;21.20;56.06;101117.84;4903723;29;45317;-75
2022/09/01 06:11:36;;;;;;;;;9.75;9.75;;;;;21.30;55.66;101128.94;4886365;29;45483;-76
2022/09/01 06:14:04;;;;;;;;;10.00;10.00;;;;;21.13;55.70;101081.25;4886948;29;45418;-75
2022/09/01 06:16:30;;;;;;;;;13.00;12.75;;;;;21.42;56.25;101136.19;4884612;29;45576;-75
2022/09/01 06:18:56;;;;;;;;;10.00;10.00;;;;;21.36;55.81;101125.75;4900619;29;45745;-76
2022/09/01 06:21:23;;;;;;;;;14.50;12.50;;;;;21.49;55.37;101143.94;4886708;29;45429;-76
2022/09/01 06:23:50;;;;;;;;;12.50;10.25;;;;;21.34;55.80;101125.00;4904330;29;45343;-77
2022/09/01 06:26:22;;;;;;;;;14.25;11.50;;;;;21.44;56.05;101133.34;4902478;29;45641;-75
2022/09/01 06:28:49;;;;;;;;;12.00;12.00;;;;;21.54;55.36;101161.63;4872015;29;47446;-75
2022/09/01 06:31:16;;;;;;;;;13.00;13.00;;;;;21.53;55.79;101156.28;4899525;29;45417;-76
2022/09/01 06:33:42;;;;;;;;;13.75;13.50;;;;;21.40;56.08;101130.00;4902066;29;45462;-76
2022/09/01 06:36:08;;;;;;;;;12.25;12.25;;;;;21.43;55.43;101124.34;4895880;29;45396;-79
2022/09/01 06:38:35;;;;;;;;;12.00;11.50;;;;;21.42;55.47;101124.47;4902852;28;45456;-80
2022/09/01 06:41:07;;;;;;;;;11.00;11.00;;;;;21.54;55.96;101145.31;4902974;29;45600;-79
2022/09/01 06:43:32;;;;;;;;;9.25;9.25;;;;;21.43;56.01;101134.31;4902643;29;45334;-80
2022/09/01 06:46:01;;;;;;;;;13.25;11.25;;;;;21.46;55.59;101140.41;4902512;28;45310;-76
2022/09/01 06:48:29;;;;;;;;;11.75;11.75;;;;;21.26;55.93;101094.81;4876147;28;48578;-80
2022/09/01 06:50:57;;;;;;;;;13.25;10.75;;;;;21.42;55.86;101122.59;4877018;29;45748;-82
2022/09/01 06:53:23;;;;;;;;;12.50;11.00;;;;;21.45;56.10;101135.06;4899898;29;45817;-81
2022/09/01 06:55:48;;;;;;;;;17.00;13.75;;;;;21.50;55.53;101143.81;4884851;28;45430;-78
2022/09/01 06:58:14;;;;;;;;;12.75;12.00;;;;;21.41;56.11;101125.44;4898928;28;45262;-76
2022/09/01 07:00:41;;;;;;;;;14.50;14.00;;;;;21.51;55.95;101136.53;4897112;28;45418;-76
2022/09/01 07:03:08;;;;;;;;;11.75;11.50;;;;;21.53;56.37;101143.56;4902945;29;45547;-76
2022/09/01 07:05:39;;;;;;;;;13.75;12.75;;;;;21.56;55.95;101142.50;4900317;29;45259;-76
2022/09/01 07:08:08;;;;;;;;;15.75;13.50;;;;;21.45;55.63;101126.94;4889917;29;46432;-76
2022/09/01 07:10:43;;;;;;;;;17.50;16.50;;;;;21.70;55.58;101168.66;4884900;29;45480;-76
2022/09/01 07:13:11;;;;;;;;;14.50;12.75;;;;;21.37;55.58;101119.34;4902175;29;45838;-76
2022/09/01 07:15:41;;;;;;;;;14.75;11.75;;;;;21.70;55.86;101164.13;4903267;29;45454;-76
2022/09/01 07:18:06;;;;;;;;;12.25;10.50;;;;;21.54;55.92;101141.75;4903288;29;46390;-76
2022/09/01 07:20:37;;;;;;;;;15.50;12.00;;;;;21.49;56.57;101136.63;4902411;28;45756;-76
2022/09/01 07:23:02;;;;;;;;;10.50;10.00;;;;;21.73;56.14;101173.88;4902923;29;45392;-76
2022/09/01 07:25:30;;;;;;;;;11.50;11.50;;;;;21.56;55.73;101142.50;4903270;29;45408;-76
2022/09/01 07:27:56;;;;;;;;;12.00;12.00;;;;;21.63;55.84;101165.50;4900498;28;46389;-76
2022/09/01 07:30:22;;;;;;;;;13.00;12.00;;;;;21.33;56.31;101116.97;4901849;28;45453;-75
2022/09/01 07:32:49;;;;;;;;;14.25;12.50;;;;;21.50;56.13;101145.66;4902850;29;45462;-75
2022/09/01 07:35:21;;;;;;;;;16.25;12.00;;;;;21.56;55.91;101158.78;4884131;29;45605;-75
2022/09/01 07:37:47;;;;;;;;;13.25;12.75;;;;;21.66;56.79;101162.56;4900603;29;45519;-75
2022/09/01 07:40:17;;;;;;;;;13.25;12.00;;;;;21.70;56.63;101171.38;4902428;29;45487;-76
2022/09/01 07:42:43;;;;;;;;;15.00;12.75;;;;;21.62;56.41;101155.66;4901423;29;45469;-75
2022/09/01 07:45:10;;;;;;;;;10.75;10.75;;;;;21.78;57.00;101160.81;4901252;29;45484;-75
2022/09/01 07:47:36;;;;;;;;;11.25;10.00;;;;;21.82;56.50;101163.19;4885344;29;48207;-75
2022/09/01 07:50:09;;;;;;;;;11.25;11.25;;;;;21.79;56.78;101151.69;4902630;29;45461;-75
2022/09/01 07:52:41;;;;;;;;;10.75;10.50;;;;;21.66;55.92;101121.84;4904273;28;45548;-75
2022/09/01 07:55:09;;;;;;;;;10.25;9.50;;;;;21.95;55.88;101171.34;4885661;29;45576;-76
2022/09/01 07:57:35;;;;;;;;;11.50;11.50;;;;;21.84;56.07;101154.94;4898789;28;45451;-76
2022/09/01 08:00:01;;;;;;;;;13.75;12.50;;;;;21.98;55.46;101165.66;4883776;29;46409;-76
2022/09/01 08:02:26;;;;;;;;;10.50;10.50;;;;;21.94;56.21;101160.56;4902542;29;45463;-76
2022/09/01 08:04:52;;;;;;;;;15.25;13.75;;;;;22.04;55.99;101175.22;4901336;28;45523;-76
2022/09/01 08:07:20;;;;;;;;;12.75;12.50;;;;;21.98;56.11;101162.06;4901838;29;46018;-76
2022/09/01 08:09:45;;;;;;;;;13.00;12.25;;;;;22.17;55.51;101183.34;4903394;29;45282;-76
2022/09/01 08:12:11;;;;;;;;;16.00;14.25;;;;;22.00;55.07;101157.38;4905929;29;45165;-76
2022/09/01 08:14:36;;;;;;;;;13.00;12.00;;;;;21.90;55.06;101130.03;4899946;29;45603;-76
2022/09/01 08:17:02;;;;;;;;;11.25;10.75;;;;;22.24;56.00;101179.16;4905658;29;45233;-76
2022/09/01 08:19:28;;;;;;;;;11.50;10.25;;;;;22.16;55.80;101157.97;4901593;29;45296;-76
2022/09/01 08:21:53;;;;;;;;;11.25;9.75;;;;;22.11;55.35;101146.59;4896883;29;45609;-76
2022/09/01 08:24:18;;;;;;;;;12.25;11.00;;;;;22.06;55.68;101140.63;4905735;29;45602;-76
2022/09/01 08:26:44;;;;;;;;;10.25;10.25;;;;;22.32;55.44;101184.94;4905738;29;46272;-76
2022/09/01 08:29:09;;;;;;;;;15.00;14.00;;;;;22.20;55.59;101164.94;4905433;29;45427;-76
2022/09/01 08:31:35;;;;;;;;;11.75;11.75;;;;;22.33;55.37;101169.47;4905850;29;45784;-76
2022/09/01 08:34:03;;;;;;;;;14.25;14.25;;;;;22.45;54.84;101187.59;4901389;29;45502;-76
2022/09/01 08:36:29;;;;;;;;;10.75;10.75;;;;;22.46;54.97;101189.31;4905381;29;46311;-76
2022/09/01 08:38:54;;;;;;;;;14.50;13.00;;;;;22.47;54.99;101184.75;4905290;29;52607;-76
2022/09/01 08:41:29;;;;;;;;;11.50;11.50;;;;;22.53;55.83;101190.59;4900292;28;45464;-76
2022/09/01 08:44:14;;;;;;;;;10.25;10.25;;;;;22.57;55.03;101193.97;4903860;29;45745;-76
2022/09/01 08:46:41;;;;;;;;;11.00;10.75;;;;;22.63;55.53;101187.19;4900886;28;46938;-76
2022/09/01 08:49:13;;;;;;;;;8.75;8.25;;;;;22.68;55.20;101183.13;4886523;29;45279;-76
2022/09/01 08:51:48;;;;;;;;;11.00;11.00;;;;;22.73;54.42;101188.22;4885451;29;45275;-76
2022/09/01 08:54:23;;;;;;;;;12.25;11.00;;;;;22.74;54.97;101184.50;4886517;29;45420;-76
2022/09/01 08:56:55;;;;;;;;;11.25;11.25;;;;;22.78;54.54;101187.88;4900936;28;48014;-76
2022/09/01 08:59:20;;;;;;;;;14.00;14.00;;;;;22.75;54.17;101169.91;4873145;29;45486;-76
2022/09/01 09:01:58;;;;;;;;;12.50;11.00;;;;;22.83;53.93;101182.94;4884925;29;45540;-76
2022/09/01 09:04:46;;;;;;;;;12.50;11.75;;;;;22.85;54.12;101186.41;4886402;29;45413;-76
2022/09/01 09:07:36;;;;;;;;;13.00;13.00;;;;;22.90;54.54;101192.34;4883290;29;45507;-76
2022/09/01 09:10:10;;;;;;;;;12.75;12.00;;;;;22.92;54.11;101191.25;4880923;29;46764;-76
2022/09/01 09:12:50;;;;;;;;;12.25;10.00;;;;;22.99;54.44;101197.09;4884540;29;45489;-76
2022/09/01 09:15:41;;;;;;;;;12.75;12.75;;;;;23.05;54.39;101191.16;4886022;29;45627;-76
2022/09/01 09:18:48;;;;;;;;;12.50;11.50;;;;;23.13;54.32;101193.31;4879984;29;45592;-76
2022/09/01 09:21:26;;;;;;;;;12.00;12.00;;;;;23.19;54.61;101189.22;4846850;29;45515;-76
2022/09/01 09:24:07;;;;;;;;;16.50;14.00;;;;;23.25;54.52;101183.31;4884764;29;45412;-76
2022/09/01 09:26:33;;;;;;;;;10.00;9.75;;;;;23.31;54.80;101186.41;4882220;29;45359;-76
2022/09/01 09:28:58;;;;;;;;;12.25;12.25;;;;;23.40;54.18;101186.69;4884685;29;46130;-75
2022/09/01 09:31:32;;;;;;;;;13.00;12.50;;;;;23.41;54.04;101191.16;4886182;29;45436;-76
2022/09/01 09:33:58;;;;;;;;;13.25;12.50;;;;;23.46;54.15;101184.34;4883798;29;45718;-76
2022/09/01 09:36:35;;;;;;;;;14.00;12.00;;;;;23.51;53.34;101181.25;4884844;29;45520;-76
2022/09/01 09:39:11;;;;;;;;;14.25;12.50;;;;;23.53;53.17;101183.84;4885731;29;45368;-76
2022/09/01 09:41:39;;;;;;;;;16.50;11.75;;;;;23.55;53.73;101179.13;4885338;29;45490;-76
2022/09/01 09:44:14;;;;;;;;;16.00;13.00;;;;;23.54;53.50;101174.66;4871982;29;45486;-75
2022/09/01 09:46:42;;;;;;;;;14.50;14.50;;;;;23.60;53.56;101183.22;4890968;29;45376;-76
2022/09/01 09:49:10;;;;;;;;;12.00;12.00;;;;;23.64;53.53;101183.88;4901314;29;45440;-76
2022/09/01 09:51:39;;;;;;;;;14.25;14.00;;;;;23.68;53.64;101182.59;4884533;29;45424;-76
2022/09/01 09:54:39;;;;;;;;;13.50;13.00;;;;;23.73;53.60;101191.28;4902557;28;45719;-76
2022/09/01 09:57:07;;;;;;;;;13.00;13.00;;;;;23.75;53.36;101175.66;4851394;28;45609;-76
2022/09/01 09:59:37;;;;;;;;;10.50;10.50;;;;;23.74;52.81;101168.50;4894129;28;47161;-76
2022/09/01 10:02:31;;;;;;;;;14.50;13.25;;;;;23.79;52.81;101170.81;4880193;29;45716;-76
2022/09/01 10:04:58;;;;;;;;;16.25;13.00;;;;;23.82;53.62;101174.22;4895009;28;45546;-76
2022/09/01 10:07:36;;;;;;;;;14.00;13.00;;;;;23.85;52.59;101173.09;4901177;28;45546;-76
2022/09/01 10:10:43;;;;;;;;;14.50;13.50;;;;;23.87;52.45;101182.00;4902736;29;48272;-76
2022/09/01 10:13:16;;;;;;;;;15.25;12.75;;;;;23.82;53.32;101162.44;4889506;29;45349;-76
2022/09/01 10:15:52;;;;;;;;;10.50;10.50;;;;;23.89;52.16;101165.53;4911332;28;46493;-76
2022/09/01 10:18:21;;;;;;;;;11.25;11.25;;;;;23.95;52.56;101171.34;4894067;29;46264;-76
2022/09/01 10:20:55;;;;;;;;;12.50;11.00;;;;;23.95;51.80;101168.59;4902720;28;46153;-76
2022/09/01 10:23:20;;;;;;;;;12.00;11.00;;;;;23.99;51.92;101171.94;4903780;29;45497;-76
2022/09/01 10:25:49;;;;;;;;;12.50;12.00;;;;;24.02;51.97;101174.41;4897756;28;45329;-76
2022/09/01 10:28:22;;;;;;;;;10.25;10.25;;;;;24.00;51.46;101163.63;4903158;29;45362;-75
2022/09/01 10:30:50;;;;;;;;;9.25;9.25;;;;;24.08;52.58;101168.47;4903615;29;46179;-75
2022/09/01 10:33:16;;;;;;;;;14.00;11.75;;;;;24.07;51.70;101163.13;4902487;29;45491;-76
2022/09/01 10:35:45;;;;;;;;;10.50;10.50;;;;;24.13;51.71;101165.38;4896641;29;45318;-75
2022/09/01 10:38:26;;;;;;;;;9.50;8.00;;;;;24.16;51.42;101165.13;4903674;28;45464;-76
2022/09/01 10:41:06;;;;;;;;;10.75;10.75;;;;;24.18;51.24;101160.41;4886452;29;47404;-76
2022/09/01 10:43:42;;;;;;;;;12.25;12.00;;;;;24.22;51.43;101159.13;4903419;29;45336;-75
2022/09/01 10:46:28;;;;;;;;;12.50;10.00;;;;;24.26;51.02;101154.28;4884702;29;45570;-75
2022/09/01 10:48:55;;;;;;;;;11.25;11.25;;;;;24.29;50.79;101152.19;4886831;29;46322;-75
2022/09/01 10:51:21;;;;;;;;;9.00;9.00;;;;;24.29;50.86;101151.28;4904014;29;45769;-75
2022/09/01 10:53:53;;;;;;;;;11.00;9.33;;;;;24.31;50.46;101152.91;4902583;29;45809;-75
2022/09/01 10:56:26;;;;;;;;;10.50;10.50;;;;;24.33;51.58;101150.91;4902806;29;45463;-75
2022/09/01 10:58:57;;;;;;;;;11.25;10.25;;;;;24.38;51.19;101153.25;4889373;29;45433;-76
2022/09/01 11:01:42;;;;;;;;;8.25;8.25;;;;;24.42;50.65;101152.88;4903901;29;45339;-75
2022/09/01 11:04:13;;;;;;;;;11.00;10.50;;;;;24.47;51.07;101151.63;4901287;29;45225;-75
2022/09/01 11:06:54;;;;;;;;;7.75;7.75;;;;;24.51;51.25;101150.38;4897266;29;45537;-75
2022/09/01 11:09:30;;;;;;;;;10.25;10.25;;;;;24.56;50.99;101150.88;4903744;29;45455;-75
2022/09/01 11:12:11;;;;;;;;;8.25;8.25;;;;;24.52;49.91;101128.38;4886068;29;47167;-75
2022/09/01 11:15:00;;;;;;;;;7.75;7.75;;;;;24.63;49.78;101140.31;4886472;29;45420;-75
2022/09/01 11:17:32;;;;;;;;;9.00;8.00;;;;;24.61;49.43;101126.78;4893263;29;45360;-76
2022/09/01 11:20:16;;;;;;;;;5.75;5.75;;;;;24.68;49.41;101132.59;4903554;29;45316;-75
2022/09/01 11:22:45;;;;;;;;;10.00;9.00;;;;;24.74;49.18;101132.91;4886332;29;48372;-75
2022/09/01 11:25:32;;;;;;;;;8.50;8.50;;;;;24.79;49.48;101127.03;4902196;29;45441;-75
2022/09/01 11:27:59;;;;;;;;;8.25;8.00;;;;;24.80;49.16;101120.59;4903074;29;45392;-75
2022/09/01 11:30:30;;;;;;;;;9.50;9.50;;;;;24.87;48.49;101126.38;4903333;29;45439;-75
2022/09/01 11:33:12;;;;;;;;;6.00;6.00;;;;;24.84;48.35;101107.53;4902553;29;46246;-75
2022/09/01 11:35:37;;;;;;;;;7.25;6.50;;;;;24.90;48.45;101118.78;4903280;29;45361;-75
2022/09/01 11:38:06;;;;;;;;;7.00;7.00;;;;;24.95;48.36;101113.78;4903157;29;45344;-75
2022/09/01 11:40:34;;;;;;;;;6.00;6.00;;;;;25.02;48.24;101122.31;4903356;29;45568;-75
2022/09/01 11:43:09;;;;;;;;;6.00;6.00;;;;;25.01;48.32;101106.94;4890435;29;45471;-75
2022/09/01 11:45:51;;;;;;;;;6.00;6.00;;;;;24.91;47.88;101078.72;4885194;28;45666;-76
2022/09/01 11:48:16;;;;;;;;;7.00;7.00;;;;;25.12;46.96;101109.56;4884513;29;45439;-75
2022/09/01 11:50:42;;;;;;;;;8.50;8.50;;;;;25.20;47.55;101118.97;4884154;29;45501;-75
2022/09/01 11:53:21;;;;;;;;;7.00;7.00;;;;;25.19;47.36;101093.50;4882143;29;45890;-77
2022/09/01 11:55:52;;;;;;;;;6.25;6.25;;;;;25.12;47.40;101087.72;4877131;29;45465;-77
2022/09/01 11:58:26;;;;;;;;;5.50;5.50;;;;;25.32;46.08;101105.09;4863807;29;45322;-75
2022/09/01 12:00:53;;;;;;;;;6.00;5.00;;;;;25.23;46.80;101085.94;4880941;29;45497;-75
2022/09/01 12:03:28;;;;;;;;;7.25;7.25;;;;;25.42;46.50;101110.59;4880217;29;45612;-75
2022/09/01 12:06:01;;;;;;;;;6.50;6.50;;;;;25.45;46.58;101104.88;4883372;29;45508;-74
2022/09/01 12:08:31;;;;;;;;;6.00;6.00;;;;;25.47;46.18;101100.13;4884218;29;45469;-74
2022/09/01 12:11:17;;;;;;;;;6.00;6.00;;;;;25.39;45.79;101075.34;4884041;29;45414;-74
2022/09/01 12:13:58;;;;;;;;;7.50;7.50;;;;;25.44;45.59;101080.41;4883421;29;45436;-74
2022/09/01 12:16:25;;;;;;;;;6.25;6.00;;;;;25.40;45.37;101068.03;4883294;29;45323;-75
2022/09/01 12:18:53;;;;;;;;;6.00;6.00;;;;;25.63;45.16;101099.63;4884101;29;45351;-74
2022/09/01 12:21:39;;;;;;;;;7.00;7.00;;;;;25.66;45.14;101096.63;4883959;29;45309;-76
2022/09/01 12:24:20;;;;;;;;;5.00;4.75;;;;;25.50;45.07;101064.31;4873773;29;45361;-74
2022/09/01 12:33:53;;;;;;;;;5.50;5.50;;;;;25.68;45.33;101069.16;4775826;29;45840;-79
2022/09/01 12:36:34;;;;;;;;;8.25;7.00;;;;;25.67;44.55;101053.72;4787098;29;46095;-79
2022/09/01 12:39:35;;;;;;;;;8.50;7.50;;;;;25.68;44.89;101052.75;4770340;29;45492;-82
2022/09/01 12:45:09;;;;;;;;;6.00;6.00;;;;;25.98;44.68;101086.50;4863916;29;45532;-79
2022/09/01 12:47:39;;;;;;;;;6.75;6.75;;;;;26.03;45.00;101089.69;4885455;29;46630;-80
2022/09/01 12:50:07;;;;;;;;;8.00;7.00;;;;;26.06;44.87;101089.38;4897182;28;45831;-76
2022/09/01 12:52:35;;;;;;;;;8.75;7.50;;;;;26.09;45.15;101091.81;4898651;29;45410;-76
2022/09/01 12:55:08;;;;;;;;;6.50;5.25;;;;;26.09;44.58;101089.09;4880532;29;45874;-80
2022/09/01 12:57:47;;;;;;;;;8.00;8.00;;;;;25.79;44.00;101027.97;4896841;29;46688;-80
2022/09/01 13:00:22;;;;;;;;;7.25;7.25;;;;;25.94;44.11;101055.78;4896962;29;45832;-80
2022/09/01 13:03:21;;;;;;;;;6.00;6.00;;;;;25.84;44.12;101024.84;4890536;28;46016;-80
2022/09/01 13:05:57;;;;;;;;;6.75;6.75;;;;;25.81;44.25;101019.66;4882209;29;45552;-80
2022/09/01 13:08:32;;;;;;;;;7.25;6.50;;;;;26.07;44.17;101048.19;4881207;29;48516;-81
2022/09/01 13:11:09;;;;;;;;;6.00;5.50;;;;;26.11;44.03;101051.53;4881038;29;45649;-80
2022/09/01 13:13:37;;;;;;;;;7.25;7.25;;;;;25.95;44.23;101018.38;4896283;28;45590;-80
2022/09/01 13:16:11;;;;;;;;;8.25;8.00;;;;;25.97;43.98;101010.91;4899834;28;45817;-81
2022/09/01 13:18:39;;;;;;;;;7.25;6.75;;;;;26.18;44.19;101039.00;4882919;29;48152;-81
2022/09/01 13:21:06;;;;;;;;;5.75;5.75;;;;;26.25;43.91;101042.88;4894901;28;45700;-81
2022/09/01 13:23:34;;;;;;;;;8.00;8.00;;;;;26.11;45.25;101004.16;4898344;28;45604;-81
2022/09/01 13:26:04;;;;;;;;;9.25;8.00;;;;;26.21;44.76;101033.25;4877161;29;45593;-81
2022/09/01 13:28:30;;;;;;;;;8.00;8.00;;;;;26.36;44.35;101044.63;4896613;28;45737;-81
2022/09/01 13:30:58;;;;;;;;;9.50;8.50;;;;;26.41;44.41;101035.94;4898441;28;45511;-78
2022/09/01 13:33:26;;;;;;;;;9.25;8.25;;;;;26.38;43.55;101031.63;4884332;29;45736;-79
2022/09/01 13:35:51;;;;;;;;;7.75;7.75;;;;;26.30;44.08;101006.03;4882841;29;45472;-78
2022/09/01 13:38:21;;;;;;;;;9.50;6.50;;;;;26.33;44.35;100997.50;4899642;29;46022;-73
2022/09/01 13:40:48;;;;;;;;;8.00;8.00;;;;;26.57;43.45;101032.63;4900692;29;45487;-78
2022/09/01 13:43:19;;;;;;;;;8.00;8.00;;;;;26.57;43.10;101024.41;4882272;29;45480;-78
2022/09/01 13:45:45;;;;;;;;;9.00;7.25;;;;;26.62;42.95;101028.41;4883717;28;45892;-79
2022/09/01 13:48:11;;;;;;;;;8.00;8.00;;;;;26.61;42.42;101012.13;4877870;29;46275;-78
2022/09/01 13:50:37;;;;;;;;;7.00;7.00;;;;;26.57;41.50;101003.34;4894013;29;45965;-75
2022/09/01 13:53:43;;;;;;;;;8.00;8.00;;;;;26.81;42.34;101043.09;4881824;29;45315;-80
2022/09/01 13:56:15;;;;;;;;;8.00;8.00;;;;;26.68;42.47;101013.31;4877836;29;45427;-79
2022/09/01 13:58:41;;;;;;;;;7.00;7.00;;;;;26.69;42.42;101014.19;4879061;29;48228;-76
2022/09/01 14:01:06;;;;;;;;;8.75;8.75;;;;;26.55;42.34;100982.63;4880864;29;45516;-74
2022/09/01 14:03:31;;;;;;;;;8.50;7.25;;;;;26.69;43.01;101001.34;4878721;29;45419;-76
2022/09/01 14:05:57;;;;;;;;;7.00;6.00;;;;;26.62;43.08;100991.97;4881505;29;45507;-75
2022/09/01 14:08:27;;;;;;;;;9.75;9.75;;;;;26.78;41.91;101013.28;4880537;29;45516;-77
2022/09/01 14:10:53;;;;;;;;;6.50;6.50;;;;;26.78;41.70;101007.78;4879704;29;45647;-74
2022/09/01 14:13:23;;;;;;;;;9.25;7.50;;;;;26.90;41.52;101028.53;4885022;29;45430;-74
2022/09/01 14:15:49;;;;;;;;;9.25;6.25;;;;;26.75;41.73;101005.38;4884424;29;45362;-74
2022/09/01 14:18:16;;;;;;;;;10.00;8.25;;;;;26.77;41.38;101000.59;4884380;29;45467;-74
2022/09/01 14:20:44;;;;;;;;;7.00;7.00;;;;;26.84;41.79;101012.69;4884259;29;45453;-74
2022/09/01 14:23:12;;;;;;;;;7.75;7.00;;;;;26.84;42.14;101009.09;4885444;29;45646;-74
2022/09/01 14:25:42;;;;;;;;;6.25;6.25;;;;;26.80;41.22;100990.22;4899519;29;45260;-74
2022/09/01 14:28:07;;;;;;;;;6.75;6.00;;;;;26.98;41.54;101023.16;4880870;29;47548;-74
2022/09/01 14:30:32;;;;;;;;;7.25;7.00;;;;;26.87;41.20;101004.19;4881321;29;45434;-74
2022/09/01 14:32:59;;;;;;;;;6.75;6.50;;;;;26.85;40.78;100992.50;4885165;29;45433;-74
2022/09/01 14:35:26;;;;;;;;;8.00;8.00;;;;;27.02;41.71;101011.91;4885220;29;45423;-74
2022/09/01 14:37:53;;;;;;;;;8.75;8.75;;;;;27.05;41.35;101006.09;4883514;29;45397;-74
2022/09/01 14:40:21;;;;;;;;;9.25;7.00;;;;;27.03;41.22;100991.72;4884594;29;45528;-74
2022/09/01 14:42:51;;;;;;;;;9.00;8.50;;;;;26.93;40.31;100969.84;4884619;29;45831;-74
2022/09/01 14:45:19;;;;;;;;;8.25;7.25;;;;;26.98;41.07;100984.81;4882333;29;45587;-74
2022/09/01 14:47:49;;;;;;;;;7.50;7.25;;;;;27.10;40.54;100998.31;4896371;28;45720;-74
2022/09/01 14:50:16;;;;;;;;;5.00;5.00;;;;;27.02;40.33;100979.91;4884047;28;45855;-74
2022/09/01 14:52:42;;;;;;;;;6.75;6.75;;;;;27.18;40.96;101009.38;4898438;29;45393;-74
2022/09/01 14:55:08;;;;;;;;;10.00;8.50;;;;;27.15;40.38;100993.25;4903146;29;45617;-74
2022/09/01 14:57:33;;;;;;;;;6.00;6.00;;;;;27.05;40.01;100974.13;4899387;28;46277;-75
2022/09/01 14:59:59;;;;;;;;;8.75;8.00;;;;;27.05;39.52;100973.22;4903154;29;45296;-74
2022/09/01 15:02:27;;;;;;;;;8.00;8.00;;;;;27.21;39.42;100989.03;4885438;29;45412;-74
2022/09/01 15:04:53;;;;;;;;;4.75;4.50;;;;;27.08;39.85;100970.19;4886431;29;45458;-74
2022/09/01 15:07:19;;;;;;;;;7.75;7.75;;;;;27.12;39.57;100968.91;4902952;29;45699;-75
2022/09/01 15:09:44;;;;;;;;;7.00;7.00;;;;;27.10;39.25;100970.94;4903468;29;45459;-74
2022/09/01 15:12:10;;;;;;;;;8.00;8.00;;;;;27.05;39.23;100951.31;4901810;29;45338;-74
2022/09/01 15:14:36;;;;;;;;;5.50;5.50;;;;;27.09;39.14;100959.09;4902888;29;45437;-74
2022/09/01 15:17:02;;;;;;;;;4.75;4.75;;;;;27.02;39.08;100933.31;4898124;29;45405;-74
2022/09/01 15:19:27;;;;;;;;;6.00;6.00;;;;;27.27;39.33;100975.59;4901442;29;45529;-74
2022/09/01 15:21:52;;;;;;;;;6.50;6.50;;;;;27.15;38.87;100949.41;4900963;28;45261;-74
2022/09/01 15:24:18;;;;;;;;;9.50;9.50;;;;;27.17;38.29;100945.50;4903378;29;45312;-74
2022/09/01 15:26:46;;;;;;;;;6.25;6.25;;;;;27.15;38.95;100939.31;4900519;29;46255;-74
2022/09/01 15:29:12;;;;;;;;;7.75;6.75;;;;;27.32;38.69;100972.41;4902070;28;45527;-74
2022/09/01 15:31:38;;;;;;;;;5.50;5.50;;;;;27.19;38.50;100934.38;4902507;29;45493;-74
2022/09/01 15:34:04;;;;;;;;;7.75;5.50;;;;;27.09;37.91;100912.50;4900929;29;45817;-74
2022/09/01 15:36:35;;;;;;;;;7.75;6.75;;;;;27.39;37.29;100954.34;4890974;29;46801;-74
2022/09/01 15:39:00;;;;;;;;;4.50;3.75;;;;;27.31;37.71;100935.06;4897966;29;45661;-74
2022/09/01 15:41:29;;;;;;;;;5.25;5.00;;;;;27.42;37.93;100943.06;4898807;29;45603;-74
2022/09/01 15:43:55;;;;;;;;;5.00;5.00;;;;;27.35;37.51;100931.84;4897771;29;45526;-74
2022/09/01 15:46:21;;;;;;;;;7.00;5.25;;;;;27.44;37.10;100948.41;4901150;29;46595;-74
2022/09/01 15:48:47;;;;;;;;;4.25;4.25;;;;;27.41;37.30;100943.22;4901791;29;45619;-76
2022/09/01 15:51:21;;;;;;;;;8.25;7.00;;;;;27.51;37.24;100946.75;4885277;28;45337;-72
2022/09/01 15:53:48;;;;;;;;;6.00;6.00;;;;;27.49;37.53;100940.56;4900554;29;45626;-72
2022/09/01 15:56:16;;;;;;;;;7.50;7.50;;;;;27.43;37.66;100927.47;4900116;28;46113;-72
2022/09/01 15:58:42;;;;;;;;;5.50;5.50;;;;;27.40;37.34;100925.91;4901200;29;45351;-73
2022/09/01 16:01:07;;;;;;;;;5.50;5.50;;;;;27.46;37.37;100932.66;4886018;29;45416;-73
2022/09/01 16:03:33;;;;;;;;;6.75;6.25;;;;;27.34;37.12;100904.59;4902433;29;45452;-74
2022/09/01 16:05:59;;;;;;;;;5.00;5.00;;;;;27.42;36.90;100917.53;4885457;29;48180;-75
2022/09/01 16:11:33;;;;;;;;;5.00;5.00;;;;;27.37;37.89;100920.75;4888040;29;45569;-74
2022/09/01 16:14:15;;;;;;;;;6.25;6.25;;;;;27.23;37.28;100885.59;4884720;29;45441;-74
2022/09/01 16:17:42;;;;;;;;;;;;;;;;;;;;;
2022/09/01 16:20:46;;;;;;;;;4.25;4.25;;;;;27.56;37.47;100935.31;4870385;29;73049;-73
2022/09/01 16:23:24;;;;;;;;;4.75;4.75;;;;;27.55;37.89;100939.97;4899401;29;45356;-74
2022/09/01 16:25:57;;;;;;;;;7.00;7.00;;;;;27.32;37.55;100892.94;4887391;29;45449;-74
2022/09/01 16:28:27;;;;;;;;;5.50;5.50;;;;;27.49;37.94;100924.13;4894936;29;45559;-74
2022/09/01 16:31:26;;;;;;;;;;;;;;;;;;;;;
2022/09/01 16:37:42;;;;;;;;;;;;;;;;;;;;;
2022/09/01 16:44:13;;;;;;;;;;;;;;;;;;;;;
2022/09/01 16:47:21;;;;;;;;;;;;;;;;;;;;;
2022/09/01 16:50:24;;;;;;;;;;;;;;;;;;;;;
2022/09/01 16:53:05;;;;;;;;;;;;;;;;;;;;;
2022/09/01 16:59:23;;;;;;;;;;;;;;;;;;;;;
2022/09/01 17:05:21;;;;;;;;;;;;;;;;;;;;;
2022/09/01 17:08:28;;;;;;;;;;;;;;;;;;;;;
2022/09/01 17:12:20;;;;;;;;;;;;;;;;;;;;;
2022/09/01 17:23:55;;;;;;;;;;;;;;;;;;;;;
2022/09/01 17:26:35;;;;;;;;;;;;;;;;;;;;;
2022/09/01 17:29:13;;;;;;;;;8.25;8.25;;;;;27.17;37.14;100895.31;4898914;29;76086;-70
2022/09/01 17:32:08;;;;;;;;;;;;;;;;;;;;;
2022/09/01 17:34:48;;;;;;;;;9.25;8.25;;;;;27.30;37.34;100916.91;4897017;28;67827;-69
2022/09/01 17:37:45;;;;;;;;;6.75;6.75;;;;;27.24;36.98;100912.84;4900768;29;45744;-69
2022/09/01 17:40:43;;;;;;;;;6.50;6.25;;;;;27.29;37.14;100916.03;4897963;29;45546;-70
2022/09/01 17:43:28;;;;;;;;;;;;;;;;;;;;;
2022/09/01 17:46:43;;;;;;;;;;;;;;;;;;;;;
2022/09/01 17:49:11;;;;;;;;;8.25;6.25;;;;;27.23;37.24;100927.59;4899417;29;74612;-70